createdAt,value
2023-04-16T00:00:29.894Z,8.00
2023-04-16T00:02:58.302Z,7.90
2023-04-16T00:05:27.418Z,7.90
2023-04-16T00:07:55.829Z,8.00
2023-04-16T00:10:26.606Z,8.00
2023-04-16T00:12:54.845Z,8.00
2023-04-16T00:15:24.880Z,8.00
2023-04-16T00:17:53.023Z,8.00
2023-04-16T00:20:21.735Z,8.00
2023-04-16T00:22:50.146Z,8.10
2023-04-16T00:25:18.262Z,8.10
2023-04-16T00:27:46.384Z,8.10
2023-04-16T00:30:14.983Z,8.10
2023-04-16T00:32:44.508Z,8.10
2023-04-16T00:35:12.764Z,8.10
2023-04-16T00:37:43.554Z,8.10
2023-04-16T00:40:12.506Z,8.10
2023-04-16T00:42:40.617Z,8.10
2023-04-16T00:45:10.174Z,8.10
2023-04-16T00:47:38.318Z,8.10
2023-04-16T00:50:09.131Z,8.10
2023-04-16T00:52:37.413Z,8.10
2023-04-16T00:55:07.712Z,8.10
2023-04-16T00:57:35.918Z,8.10
2023-04-16T01:00:04.593Z,8.10
2023-04-16T01:02:35.174Z,8.10
2023-04-16T01:05:04.340Z,8.10
2023-04-16T01:07:33.927Z,8.10
2023-04-16T01:10:02.056Z,8.10
2023-04-16T01:12:30.258Z,8.10
2023-04-16T01:14:58.660Z,8.10
2023-04-16T01:17:26.843Z,8.10
2023-04-16T01:19:55.013Z,8.10
2023-04-16T01:22:24.670Z,8.10
2023-04-16T01:24:52.776Z,8.20
2023-04-16T01:27:20.986Z,8.20
2023-04-16T01:29:49.334Z,8.20
2023-04-16T01:32:17.404Z,8.20
2023-04-16T01:34:45.615Z,8.10
2023-04-16T01:37:13.999Z,8.10
2023-04-16T01:39:43.410Z,8.10
2023-04-16T01:42:11.656Z,8.10
2023-04-16T01:44:39.878Z,8.10
2023-04-16T01:47:08.012Z,8.20
2023-04-16T01:49:36.578Z,8.20
2023-04-16T01:52:04.981Z,8.20
2023-04-16T01:54:35.738Z,8.20
2023-04-16T01:57:05.491Z,8.20
2023-04-16T01:59:33.569Z,8.20
2023-04-16T02:02:04.284Z,8.20
2023-04-16T02:04:33.100Z,8.20
2023-04-16T02:07:01.410Z,8.20
2023-04-16T02:09:29.523Z,8.20
2023-04-16T02:11:57.676Z,8.20
2023-04-16T02:14:27.341Z,8.20
2023-04-16T02:16:55.539Z,8.20
2023-04-16T02:19:23.933Z,8.20
2023-04-16T02:21:53.017Z,8.20
2023-04-16T02:24:21.348Z,8.20
2023-04-16T02:26:49.605Z,8.20
2023-04-16T02:29:18.048Z,8.20
2023-04-16T02:31:47.711Z,8.20
2023-04-16T02:34:16.515Z,8.20
2023-04-16T02:36:44.769Z,8.20
2023-04-16T02:39:12.871Z,8.10
2023-04-16T02:41:41.181Z,8.10
2023-04-16T02:44:09.556Z,8.10
2023-04-16T02:46:37.694Z,8.10
2023-04-16T02:49:07.450Z,8.10
2023-04-16T02:51:35.957Z,8.10
2023-04-16T02:54:04.104Z,8.20
2023-04-16T02:56:32.459Z,8.10
2023-04-16T02:59:00.757Z,8.10
2023-04-16T03:01:29.282Z,8.20
2023-04-16T03:03:57.530Z,8.20
2023-04-16T03:06:27.546Z,8.20
2023-04-16T03:08:55.617Z,8.20
2023-04-16T03:11:23.959Z,8.20
2023-04-16T03:13:52.140Z,8.20
2023-04-16T03:16:20.351Z,8.10
2023-04-16T03:18:48.675Z,8.20
2023-04-16T03:21:16.829Z,8.20
2023-04-16T03:23:46.316Z,8.20
2023-04-16T03:26:14.444Z,8.20
2023-04-16T03:28:42.688Z,8.20
2023-04-16T03:31:10.911Z,8.20
2023-04-16T03:33:39.126Z,8.20
2023-04-16T03:36:07.930Z,8.20
2023-04-16T03:38:36.169Z,8.20
2023-04-16T03:41:06.086Z,8.20
2023-04-16T03:43:34.584Z,8.20
2023-04-16T03:46:02.818Z,8.20
2023-04-16T03:48:30.997Z,8.20
2023-04-16T03:50:59.248Z,8.20
2023-04-16T03:53:27.343Z,8.20
2023-04-16T03:55:55.606Z,8.10
2023-04-16T03:58:25.158Z,8.10
2023-04-16T04:00:54.954Z,8.10
2023-04-16T04:03:23.250Z,8.10
2023-04-16T04:05:51.662Z,8.10
2023-04-16T04:08:20.000Z,8.10
2023-04-16T04:10:48.383Z,8.10
2023-04-16T04:13:16.489Z,8.10
2023-04-16T04:15:46.953Z,8.10
2023-04-16T04:18:15.141Z,8.10
2023-04-16T04:20:43.217Z,8.10
2023-04-16T04:23:11.470Z,8.20
2023-04-16T04:25:39.592Z,8.10
2023-04-16T04:28:07.655Z,8.10
2023-04-16T04:30:36.798Z,8.10
2023-04-16T04:33:06.411Z,8.10
2023-04-16T04:35:35.116Z,8.20
2023-04-16T04:38:04.230Z,8.20
2023-04-16T04:40:32.542Z,8.10
2023-04-16T04:43:00.627Z,8.10
2023-04-16T04:45:31.644Z,8.10
2023-04-16T04:48:00.283Z,8.10
2023-04-16T04:50:30.092Z,8.10
2023-04-16T04:52:58.203Z,8.20
2023-04-16T04:55:26.414Z,8.10
2023-04-16T04:57:54.689Z,8.10
2023-04-16T05:00:22.912Z,8.10
2023-04-16T05:02:52.118Z,8.20
2023-04-16T05:05:20.591Z,8.20
2023-04-16T05:07:50.080Z,8.20
2023-04-16T05:10:18.344Z,8.20
2023-04-16T05:12:48.983Z,8.20
2023-04-16T05:15:17.862Z,8.20
2023-04-16T05:17:46.278Z,8.20
2023-04-16T05:20:16.337Z,8.20
2023-04-16T05:22:44.535Z,8.20
2023-04-16T05:25:14.425Z,8.20
2023-04-16T05:27:42.758Z,8.20
2023-04-16T05:30:11.359Z,8.20
2023-04-16T05:32:41.025Z,8.20
2023-04-16T05:35:10.109Z,8.20
2023-04-16T05:37:38.207Z,8.20
2023-04-16T05:40:07.311Z,8.20
2023-04-16T05:42:36.808Z,8.30
2023-04-16T05:45:05.717Z,8.30
2023-04-16T05:47:33.844Z,8.20
2023-04-16T05:50:02.148Z,8.30
2023-04-16T05:52:30.261Z,8.30
2023-04-16T05:55:01.793Z,8.30
2023-04-16T05:57:30.416Z,8.30
2023-04-16T05:59:59.848Z,8.30
2023-04-16T06:02:28.205Z,8.30
2023-04-16T06:04:57.651Z,8.30
2023-04-16T06:07:25.789Z,8.40
2023-04-16T06:09:53.994Z,8.40
2023-04-16T06:12:22.221Z,8.40
2023-04-16T06:14:50.363Z,8.50
2023-04-16T06:17:20.251Z,8.50
2023-04-16T06:19:48.491Z,8.50
2023-04-16T06:22:16.751Z,8.50
2023-04-16T06:24:45.180Z,8.50
2023-04-16T06:27:13.525Z,8.50
2023-04-16T06:29:42.016Z,8.50
2023-04-16T06:32:10.746Z,8.60
2023-04-16T06:34:40.749Z,8.60
2023-04-16T06:37:10.677Z,8.70
2023-04-16T06:39:39.306Z,8.70
2023-04-16T06:42:07.430Z,8.60
2023-04-16T06:44:36.508Z,8.70
2023-04-16T06:47:05.209Z,8.70
2023-04-16T06:49:33.524Z,8.70
2023-04-16T06:52:05.174Z,8.80
2023-04-16T06:54:34.680Z,8.80
2023-04-16T06:57:02.833Z,8.80
2023-04-16T06:59:30.930Z,8.80
2023-04-16T07:01:59.562Z,8.80
2023-04-16T07:04:27.764Z,8.80
2023-04-16T07:06:56.011Z,8.90
2023-04-16T07:09:26.843Z,8.90
2023-04-16T07:11:55.373Z,8.80
2023-04-16T07:14:23.439Z,8.80
2023-04-16T07:16:51.745Z,8.90
2023-04-16T07:19:20.066Z,8.90
2023-04-16T07:21:48.223Z,8.90
2023-04-16T07:24:16.691Z,8.90
2023-04-16T07:26:46.196Z,8.90
2023-04-16T07:29:14.341Z,8.90
2023-04-16T07:31:42.803Z,9.00
2023-04-16T07:34:10.980Z,9.00
2023-04-16T07:36:39.184Z,9.00
2023-04-16T07:39:07.999Z,9.10
2023-04-16T07:41:36.372Z,9.10
2023-04-16T07:44:06.603Z,9.20
2023-04-16T07:46:43.621Z,9.30
2023-04-16T07:49:14.745Z,9.40
2023-04-16T07:51:43.344Z,9.50
2023-04-16T07:54:12.061Z,9.50
2023-04-16T07:56:40.340Z,9.60
2023-04-16T07:59:21.959Z,9.70
2023-04-16T08:01:51.591Z,9.80
2023-04-16T08:04:25.702Z,9.90
2023-04-16T08:06:54.863Z,10.00
2023-04-16T08:09:24.062Z,10.10
2023-04-16T08:11:52.226Z,10.10
2023-04-16T08:14:21.842Z,10.00
2023-04-16T08:16:51.384Z,10.00
2023-04-16T08:19:19.659Z,10.00
2023-04-16T08:21:48.253Z,10.10
2023-04-16T08:24:16.718Z,10.20
2023-04-16T08:26:45.961Z,10.30
2023-04-16T08:29:14.086Z,10.40
2023-04-16T08:31:43.932Z,10.60
2023-04-16T08:34:12.648Z,10.70
2023-04-16T08:36:42.033Z,10.80
2023-04-16T08:39:10.538Z,10.80
2023-04-16T08:41:42.109Z,10.80
2023-04-16T08:44:13.020Z,10.80
2023-04-16T08:46:44.099Z,10.80
2023-04-16T08:49:18.016Z,10.80
2023-04-16T08:51:53.176Z,10.90
2023-04-16T08:54:33.421Z,10.80
2023-04-16T08:57:04.051Z,10.70
2023-04-16T08:59:32.543Z,10.70
2023-04-16T09:02:02.481Z,10.70
2023-04-16T09:04:31.055Z,10.70
2023-04-16T09:07:00.478Z,10.70
2023-04-16T09:09:29.276Z,10.70
2023-04-16T09:11:57.512Z,10.70
2023-04-16T09:14:26.325Z,10.70
2023-04-16T09:16:55.680Z,10.60
2023-04-16T09:19:25.461Z,10.70
2023-04-16T09:21:53.815Z,10.80
2023-04-16T09:24:23.091Z,10.70
2023-04-16T09:26:52.924Z,10.80
2023-04-16T09:29:37.529Z,10.80
2023-04-16T09:32:07.695Z,11.00
2023-04-16T09:34:55.996Z,10.90
2023-04-16T09:37:24.589Z,10.80
2023-04-16T09:39:58.061Z,10.80
2023-04-16T09:42:28.556Z,10.80
2023-04-16T09:44:59.926Z,10.90
2023-04-16T09:47:42.592Z,11.00
2023-04-16T09:50:18.178Z,11.00
2023-04-16T09:52:49.938Z,11.10
2023-04-16T09:55:19.177Z,11.00
2023-04-16T09:57:48.725Z,10.90
2023-04-16T10:00:20.519Z,10.80
2023-04-16T10:02:50.649Z,10.80
2023-04-16T10:05:21.624Z,10.80
2023-04-16T10:07:49.906Z,10.80
2023-04-16T10:10:18.166Z,10.80
2023-04-16T10:12:46.579Z,10.80
2023-04-16T10:15:14.970Z,10.70
2023-04-16T10:17:44.046Z,10.70
2023-04-16T10:20:12.694Z,10.80
2023-04-16T10:22:42.993Z,10.70
2023-04-16T10:25:12.138Z,10.70
2023-04-16T10:27:41.856Z,10.80
2023-04-16T10:30:12.214Z,10.80
2023-04-16T10:32:41.721Z,10.90
2023-04-16T10:35:10.803Z,10.90
2023-04-16T10:37:38.920Z,10.90
2023-04-16T10:40:26.679Z,10.90
2023-04-16T10:42:58.951Z,11.00
2023-04-16T10:45:32.390Z,11.00
2023-04-16T10:48:00.775Z,11.00
2023-04-16T10:50:37.028Z,11.00
2023-04-16T10:53:19.819Z,11.10
2023-04-16T10:56:16.468Z,11.10
2023-04-16T10:58:44.692Z,11.00
2023-04-16T11:01:14.612Z,11.00
2023-04-16T11:03:44.443Z,11.00
2023-04-16T11:06:14.580Z,11.00
2023-04-16T11:08:53.989Z,11.10
2023-04-16T11:11:24.873Z,11.20
2023-04-16T11:13:57.861Z,11.20
2023-04-16T11:16:29.928Z,11.20
2023-04-16T11:18:58.306Z,11.10
2023-04-16T11:21:26.920Z,11.10
2023-04-16T11:23:55.497Z,11.00
2023-04-16T11:26:30.811Z,11.00
2023-04-16T11:29:00.307Z,11.00
2023-04-16T11:31:28.593Z,11.00
2023-04-16T11:34:01.090Z,10.90
2023-04-16T11:36:29.358Z,10.90
2023-04-16T11:39:04.860Z,10.90
2023-04-16T11:41:34.640Z,10.90
2023-04-16T11:44:17.639Z,11.00
2023-04-16T11:46:45.930Z,10.90
2023-04-16T11:49:14.130Z,11.10
2023-04-16T11:51:42.565Z,11.10
2023-04-16T11:54:12.204Z,11.00
2023-04-16T11:56:48.223Z,11.00
2023-04-16T11:59:17.720Z,11.00
2023-04-16T12:01:49.483Z,11.00
2023-04-16T12:04:19.888Z,11.10
2023-04-16T12:07:08.020Z,11.10
2023-04-16T12:09:39.979Z,11.00
2023-04-16T12:12:27.429Z,11.00
2023-04-16T12:14:56.884Z,11.00
2023-04-16T12:17:25.564Z,11.10
2023-04-16T12:19:56.811Z,11.00
2023-04-16T12:22:30.116Z,11.00
2023-04-16T12:25:00.723Z,11.10
2023-04-16T12:27:43.158Z,11.10
2023-04-16T12:30:12.202Z,11.20
2023-04-16T12:32:40.563Z,11.30
2023-04-16T12:35:10.026Z,11.40
2023-04-16T12:37:38.621Z,11.40
2023-04-16T12:40:08.638Z,11.40
2023-04-16T12:42:38.241Z,11.30
2023-04-16T12:45:07.368Z,11.30
2023-04-16T12:47:35.689Z,11.40
2023-04-16T12:50:04.199Z,11.40
2023-04-16T12:52:32.468Z,11.50
2023-04-16T12:55:00.716Z,11.60
2023-04-16T12:57:29.512Z,11.80
2023-04-16T13:00:00.008Z,11.80
2023-04-16T13:02:28.252Z,11.80
2023-04-16T13:04:56.576Z,11.80
2023-04-16T13:07:26.938Z,11.70
2023-04-16T13:09:55.300Z,11.60
2023-04-16T13:12:23.566Z,11.70
2023-04-16T13:14:51.788Z,11.70
2023-04-16T13:17:21.292Z,11.80
2023-04-16T13:19:49.666Z,11.90
2023-04-16T13:22:17.917Z,12.10
2023-04-16T13:24:46.074Z,12.30
2023-04-16T13:27:16.132Z,12.40
2023-04-16T13:29:44.745Z,12.50
2023-04-16T13:32:15.505Z,12.60
2023-04-16T13:34:45.577Z,12.60
2023-04-16T13:37:14.053Z,12.60
2023-04-16T13:39:42.566Z,12.60
2023-04-16T13:42:10.900Z,12.50
2023-04-16T13:44:38.999Z,12.50
2023-04-16T13:47:07.544Z,12.50
2023-04-16T13:49:36.352Z,12.60
2023-04-16T13:52:06.312Z,12.60
2023-04-16T13:54:34.678Z,12.70
2023-04-16T13:57:03.041Z,12.70
2023-04-16T13:59:31.285Z,12.70
2023-04-16T14:02:00.023Z,12.80
2023-04-16T14:04:28.417Z,12.70
2023-04-16T14:06:56.597Z,12.70
2023-04-16T14:09:26.192Z,12.80
2023-04-16T14:11:54.451Z,12.90
2023-04-16T14:14:22.598Z,13.10
2023-04-16T14:16:51.200Z,13.40
2023-04-16T14:19:19.453Z,13.80
2023-04-16T14:21:47.723Z,13.70
2023-04-16T14:24:15.981Z,13.80
2023-04-16T14:26:46.049Z,14.00
2023-04-16T14:29:14.309Z,14.20
2023-04-16T14:31:42.686Z,14.00
2023-04-16T14:34:11.197Z,13.80
2023-04-16T14:36:39.629Z,13.60
2023-04-16T14:39:08.055Z,13.50
2023-04-16T14:41:36.674Z,13.30
2023-04-16T14:44:06.869Z,13.50
2023-04-16T14:46:36.100Z,13.40
2023-04-16T14:49:04.519Z,13.60
2023-04-16T14:51:33.122Z,13.80
2023-04-16T14:54:02.101Z,13.90
2023-04-16T14:56:30.831Z,14.00
2023-04-16T14:58:58.964Z,14.10
2023-04-16T15:01:29.013Z,14.20
2023-04-16T15:04:00.640Z,14.30
2023-04-16T15:06:30.443Z,14.50
2023-04-16T15:08:58.626Z,14.50
2023-04-16T15:11:26.973Z,14.30
2023-04-16T15:13:55.523Z,14.40
2023-04-16T15:16:24.734Z,14.40
2023-04-16T15:18:54.420Z,14.40
2023-04-16T15:21:23.106Z,14.20
2023-04-16T15:23:51.220Z,14.20
2023-04-16T15:26:19.317Z,14.20
2023-04-16T15:28:47.555Z,14.30
2023-04-16T15:31:15.775Z,14.20
2023-04-16T15:33:43.882Z,14.10
2023-04-16T15:36:13.485Z,14.00
2023-04-16T15:38:41.897Z,13.80
2023-04-16T15:41:11.043Z,13.80
2023-04-16T15:43:39.328Z,13.80
2023-04-16T15:46:08.781Z,13.70
2023-04-16T15:48:37.121Z,13.50
2023-04-16T15:51:05.576Z,13.50
2023-04-16T15:53:35.758Z,13.40
2023-04-16T15:56:04.058Z,13.30
2023-04-16T15:58:32.502Z,13.30
2023-04-16T16:01:00.672Z,13.40
2023-04-16T16:03:29.609Z,13.30
2023-04-16T16:05:59.403Z,13.30
2023-04-16T16:08:28.149Z,13.30
2023-04-16T16:10:57.670Z,13.40
2023-04-16T16:13:25.898Z,13.40
2023-04-16T16:15:54.251Z,13.40
2023-04-16T16:18:23.160Z,13.40
2023-04-16T16:20:52.938Z,13.60
2023-04-16T16:23:21.661Z,13.50
2023-04-16T16:25:49.896Z,13.50
2023-04-16T16:28:20.551Z,13.40
2023-04-16T16:30:51.016Z,13.50
2023-04-16T16:33:20.531Z,13.60
2023-04-16T16:35:48.723Z,13.60
2023-04-16T16:38:17.914Z,13.60
2023-04-16T16:40:46.188Z,13.60
2023-04-16T16:43:14.341Z,13.20
2023-04-16T16:45:44.163Z,13.10
2023-04-16T16:48:12.466Z,13.10
2023-04-16T16:50:40.586Z,13.10
2023-04-16T16:53:08.802Z,13.00
2023-04-16T16:55:37.270Z,12.90
2023-04-16T16:58:05.630Z,12.90
2023-04-16T17:00:34.413Z,13.00
2023-04-16T17:03:04.177Z,13.10
2023-04-16T17:05:32.587Z,13.10
2023-04-16T17:08:00.679Z,13.20
2023-04-16T17:10:28.932Z,13.20
2023-04-16T17:12:57.309Z,13.10
2023-04-16T17:15:25.765Z,12.90
2023-04-16T17:17:53.941Z,12.80
2023-04-16T17:20:23.923Z,12.70
2023-04-16T17:22:52.277Z,12.60
2023-04-16T17:25:20.676Z,12.40
2023-04-16T17:27:48.892Z,12.30
2023-04-16T17:30:17.664Z,12.20
2023-04-16T17:32:46.180Z,12.20
2023-04-16T17:35:14.509Z,12.10
2023-04-16T17:37:44.192Z,12.10
2023-04-16T17:40:14.400Z,12.00
2023-04-16T17:42:42.866Z,12.00
2023-04-16T17:45:11.703Z,11.90
2023-04-16T17:47:40.270Z,11.90
2023-04-16T17:50:09.769Z,11.80
2023-04-16T17:52:38.428Z,11.80
2023-04-16T17:55:08.654Z,11.80
2023-04-16T17:57:37.328Z,11.80
2023-04-16T18:00:10.470Z,11.70
2023-04-16T18:02:40.711Z,11.70
2023-04-16T18:05:10.021Z,11.70
2023-04-16T18:07:39.255Z,11.70
2023-04-16T18:10:10.849Z,11.60
2023-04-16T18:12:38.967Z,11.50
2023-04-16T18:15:08.360Z,11.50
2023-04-16T18:17:36.574Z,11.40
2023-04-16T18:20:07.174Z,11.40
2023-04-16T18:22:35.579Z,11.40
2023-04-16T18:25:04.341Z,11.30
2023-04-16T18:27:34.341Z,11.20
2023-04-16T18:30:04.352Z,11.20
2023-04-16T18:32:33.477Z,11.10
2023-04-16T18:35:02.036Z,11.10
2023-04-16T18:37:30.455Z,11.00
2023-04-16T18:39:58.532Z,11.00
2023-04-16T18:42:28.236Z,10.90
2023-04-16T18:44:59.304Z,10.90
2023-04-16T18:47:27.685Z,10.80
2023-04-16T18:49:55.876Z,10.80
2023-04-16T18:52:24.143Z,10.80
2023-04-16T18:54:52.346Z,10.70
2023-04-16T18:57:20.485Z,10.70
2023-04-16T18:59:48.935Z,10.70
2023-04-16T19:02:18.471Z,10.60
2023-04-16T19:04:46.679Z,10.60
2023-04-16T19:07:15.185Z,10.60
2023-04-16T19:09:43.261Z,10.60
2023-04-16T19:12:11.395Z,10.50
2023-04-16T19:14:39.848Z,10.50
2023-04-16T19:17:07.958Z,10.50
2023-04-16T19:19:37.431Z,10.50
2023-04-16T19:22:05.685Z,10.40
2023-04-16T19:24:34.293Z,10.40
2023-04-16T19:27:02.640Z,10.40
2023-04-16T19:29:34.690Z,10.40
2023-04-16T19:32:03.313Z,10.30
2023-04-16T19:34:34.169Z,10.20
2023-04-16T19:37:03.673Z,10.20
2023-04-16T19:39:32.521Z,10.20
2023-04-16T19:42:01.725Z,10.20
2023-04-16T19:44:30.187Z,10.20
2023-04-16T19:46:58.361Z,10.20
2023-04-16T19:49:26.553Z,10.10
2023-04-16T19:51:54.894Z,10.20
2023-04-16T19:54:24.330Z,10.20
2023-04-16T19:56:52.843Z,10.20
2023-04-16T19:59:21.806Z,10.20
2023-04-16T20:01:49.993Z,10.20
2023-04-16T20:04:18.519Z,10.10
2023-04-16T20:06:47.083Z,10.20
2023-04-16T20:09:15.143Z,10.10
2023-04-16T20:11:44.643Z,10.10
2023-04-16T20:14:13.323Z,10.10
2023-04-16T20:16:43.637Z,10.10
2023-04-16T20:19:17.176Z,10.00
2023-04-16T20:21:45.867Z,10.00
2023-04-16T20:24:15.426Z,10.00
2023-04-16T20:26:45.297Z,10.00
2023-04-16T20:29:13.570Z,10.00
2023-04-16T20:31:43.177Z,9.90
2023-04-16T20:34:11.383Z,9.90
2023-04-16T20:36:39.560Z,9.80
2023-04-16T20:39:08.150Z,9.80
2023-04-16T20:41:40.168Z,9.80
2023-04-16T20:44:10.395Z,9.80
2023-04-16T20:46:39.226Z,9.80
2023-04-16T20:49:07.783Z,9.80
2023-04-16T20:51:38.008Z,9.70
2023-04-16T20:54:08.741Z,9.70
2023-04-16T20:56:37.084Z,9.70
2023-04-16T20:59:05.232Z,9.70
2023-04-16T21:01:35.112Z,9.70
2023-04-16T21:04:03.686Z,9.60
2023-04-16T21:06:33.041Z,9.60
2023-04-16T21:09:01.357Z,9.60
2023-04-16T21:11:33.342Z,9.60
2023-04-16T21:14:01.690Z,9.60
2023-04-16T21:16:29.996Z,9.60
2023-04-16T21:18:59.788Z,9.60
2023-04-16T21:21:28.567Z,9.50
2023-04-16T21:23:57.014Z,9.50
2023-04-16T21:26:25.174Z,9.50
2023-04-16T21:28:54.608Z,9.50
2023-04-16T21:31:26.331Z,9.40
2023-04-16T21:33:54.675Z,9.40
2023-04-16T21:36:26.547Z,9.40
2023-04-16T21:38:55.059Z,9.40
2023-04-16T21:41:23.440Z,9.40
2023-04-16T21:43:51.603Z,9.40
2023-04-16T21:46:20.195Z,9.30
2023-04-16T21:48:49.716Z,9.30
2023-04-16T21:51:18.224Z,9.30
2023-04-16T21:53:48.213Z,9.30
2023-04-16T21:56:16.292Z,9.30
2023-04-16T21:58:44.408Z,9.30
2023-04-16T22:01:12.846Z,9.30
2023-04-16T22:03:41.216Z,9.20
2023-04-16T22:06:09.793Z,9.20
2023-04-16T22:08:38.062Z,9.20
2023-04-16T22:11:07.638Z,9.20
2023-04-16T22:13:36.577Z,9.20
2023-04-16T22:16:05.819Z,9.20
2023-04-16T22:18:34.117Z,9.10
2023-04-16T22:21:02.884Z,9.10
2023-04-16T22:23:32.382Z,9.10
2023-04-16T22:26:02.583Z,9.10
2023-04-16T22:28:34.838Z,9.10
2023-04-16T22:31:03.147Z,9.10
2023-04-16T22:33:31.451Z,9.10
2023-04-16T22:36:00.942Z,9.10
2023-04-16T22:38:29.249Z,9.10
2023-04-16T22:40:57.279Z,9.10
2023-04-16T22:43:25.683Z,9.10
2023-04-16T22:46:04.927Z,9.00
2023-04-16T22:48:34.009Z,9.00
2023-04-16T22:51:02.083Z,9.00
2023-04-16T22:53:30.266Z,9.00
2023-04-16T22:55:58.634Z,9.00
2023-04-16T22:58:26.728Z,9.00
2023-04-16T23:00:56.702Z,9.00
2023-04-16T23:03:26.373Z,9.00
2023-04-16T23:05:56.123Z,8.90
2023-04-16T23:08:24.181Z,8.90
2023-04-16T23:10:52.616Z,8.90
2023-04-16T23:13:20.958Z,8.90
2023-04-16T23:15:49.037Z,8.80
2023-04-16T23:18:17.427Z,8.90
2023-04-16T23:20:46.888Z,8.90
2023-04-16T23:23:15.017Z,8.90
2023-04-16T23:25:43.214Z,8.90
2023-04-16T23:28:11.763Z,8.90
2023-04-16T23:30:39.898Z,8.90
2023-04-16T23:33:08.698Z,8.90
2023-04-16T23:35:36.960Z,8.90
2023-04-16T23:38:06.438Z,8.90
2023-04-16T23:40:34.562Z,8.90
2023-04-16T23:43:02.841Z,8.90
2023-04-16T23:45:31.097Z,8.90
2023-04-16T23:47:59.473Z,8.90
2023-04-16T23:50:27.713Z,8.90
2023-04-16T23:52:55.972Z,8.80
2023-04-16T23:55:25.980Z,8.80
2023-04-16T23:57:54.273Z,8.80
